Time;durP1;ratioP1;P1;durP2;ratioP2;P2;SDS_P1;SDS_P2;PMS_P1;PMS_P2;Temp;Humidity;BMP_temperature;BMP_pressure;BME280_temperature;BME280_humidity;BME280_pressure;Samples;Min_cycle;Max_cycle;Signal;HPM_P1;HPM_P2
2022/10/26 00:02:00;;;;;;;;;;;;;;;10.33;49.62;95525.06;4981727;28;20486;-78
2022/10/26 00:04:26;;;;;;;;;;;;;;;10.45;50.00;95516.66;4964908;28;19978;-77
2022/10/26 00:06:51;;;;;;;;;;;;;;;10.55;49.70;95509.25;4962264;28;20052;-77
2022/10/26 00:09:16;;;;;;;;;;;;;;;10.61;49.32;95510.38;4964253;28;19978;-78
2022/10/26 00:11:41;;;;;;;;;;;;;;;10.54;49.64;95499.59;4981420;28;19985;-77
2022/10/26 00:14:07;;;;;;;;;;;;;;;10.66;49.54;95507.97;4981997;28;20429;-78
2022/10/26 00:16:32;;;;;;;;;;;;;;;10.58;49.70;95498.22;4981849;28;19974;-77
2022/10/26 00:18:57;;;;;;;;;;;;;;;10.74;49.44;95505.22;4964104;28;20062;-77
2022/10/26 00:21:22;;;;;;;;;;;;;;;10.85;49.27;95503.13;4981862;28;20009;-77
2022/10/26 00:23:48;;;;;;;;;;;;;;;10.98;49.10;95503.31;4958072;28;19984;-77
2022/10/26 00:26:13;;;;;;;;;;;;;;;11.03;48.72;95494.78;4980125;28;20488;-78
2022/10/26 00:28:38;;;;;;;;;;;;;;;11.16;48.42;95499.50;4962698;28;20280;-77
2022/10/26 00:31:04;;;;;;;;;;;;;;;11.08;48.80;95502.22;4980103;28;19982;-77
2022/10/26 00:33:29;;;;;;;;;;;;;;;10.93;49.15;95492.41;4980195;28;20183;-78
2022/10/26 00:35:55;;;;;;;;;;;;;;;10.97;49.06;95495.50;4980704;28;20355;-77
2022/10/26 00:38:20;;;;;;;;;;;;;;;10.94;49.39;95493.19;4958125;28;20462;-77
2022/10/26 00:40:46;;;;;;;;;;;;;;;10.98;49.24;95497.19;4960492;28;19982;-77
2022/10/26 00:43:15;;;;;;;;;;;;;;;11.12;48.99;95499.03;4979937;28;20044;-77
2022/10/26 00:45:40;;;;;;;;;;;;;;;11.08;49.22;95500.38;4980352;28;20419;-77
2022/10/26 00:48:06;;;;;;;;;;;;;;;11.20;49.23;95494.63;4962577;28;20040;-77
2022/10/26 00:50:35;;;;;;;;;;;;;;;11.16;49.14;95494.19;4946723;28;19998;-77
2022/10/26 00:53:02;;;;;;;;;;;;;;;11.08;49.54;95491.56;4963108;28;19966;-77
2022/10/26 00:55:28;;;;;;;;;;;;;;;10.84;50.45;95493.47;4943084;28;20255;-77
2022/10/26 00:57:53;;;;;;;;;;;;;;;10.85;50.23;95485.31;4962190;28;19994;-77
2022/10/26 01:00:19;;;;;;;;;;;;;;;10.86;50.29;95488.81;4979643;28;20371;-78
2022/10/26 01:02:44;;;;;;;;;;;;;;;10.93;50.37;95487.06;4962389;28;20021;-77
2022/10/26 01:05:09;;;;;;;;;;;;;;;11.13;49.98;95491.88;4962386;28;20124;-77
2022/10/26 01:07:35;;;;;;;;;;;;;;;11.24;49.19;95504.72;4962767;28;19982;-77
2022/10/26 01:10:00;;;;;;;;;;;;;;;11.40;49.14;95502.88;4962166;28;20467;-78
2022/10/26 01:12:25;;;;;;;;;;;;;;;11.53;48.94;95502.22;4962300;28;19985;-77
2022/10/26 01:14:50;;;;;;;;;;;;;;;11.59;48.87;95514.78;4962167;28;19986;-78
2022/10/26 01:17:18;;;;;;;;;;;;;;;11.68;48.30;95514.66;4961544;28;20077;-77
2022/10/26 01:20:02;;;;;;;;;;;;;;;11.70;48.82;95510.78;4980219;28;19962;-77
2022/10/26 01:22:33;;;;;;;;;;;;;;;11.82;48.40;95503.16;4978754;28;19989;-78
2022/10/26 01:25:12;;;;;;;;;;;;;;;11.88;48.21;95502.41;4980933;28;19974;-77
2022/10/26 01:27:37;;;;;;;;;;;;;;;11.85;48.56;95502.78;4963737;28;20510;-77
2022/10/26 01:30:14;;;;;;;;;;;;;;;11.91;48.01;95498.53;4966788;28;20066;-77
2022/10/26 01:32:46;;;;;;;;;;;;;;;11.87;48.59;95500.72;4959514;28;19981;-77
2022/10/26 01:35:30;;;;;;;;;;;;;;;11.87;48.63;95502.59;4966677;28;19997;-78
2022/10/26 01:38:03;;;;;;;;;;;;;;;11.84;48.42;95487.78;4983733;28;20122;-78
2022/10/26 01:40:30;;;;;;;;;;;;;;;11.86;48.49;95491.09;4958240;28;19970;-77
2022/10/26 01:42:56;;;;;;;;;;;;;;;11.92;48.44;95483.31;4965924;28;19990;-77
2022/10/26 01:45:21;;;;;;;;;;;;;;;11.87;48.65;95481.25;4966601;28;19974;-77
2022/10/26 01:47:46;;;;;;;;;;;;;;;11.99;48.03;95479.72;4960821;28;20043;-77
2022/10/26 01:50:12;;;;;;;;;;;;;;;11.98;48.63;95477.25;4983747;28;20013;-77
2022/10/26 01:52:37;;;;;;;;;;;;;;;12.14;48.16;95474.34;4966660;28;19981;-77
2022/10/26 01:55:05;;;;;;;;;;;;;;;12.10;48.21;95464.25;4982795;28;20442;-77
2022/10/26 01:57:31;;;;;;;;;;;;;;;12.18;48.38;95472.13;4981522;28;20565;-77
2022/10/26 02:00:04;;;;;;;;;;;;;;;12.19;47.95;95472.94;4966485;28;20168;-77
2022/10/26 02:02:51;;;;;;;;;;;;;;;12.28;47.76;95469.13;4983965;28;20001;-77
2022/10/26 02:05:25;;;;;;;;;;;;;;;12.25;48.21;95466.84;4962467;28;19978;-77
2022/10/26 02:07:53;;;;;;;;;;;;;;;12.07;48.36;95468.13;4965827;28;19993;-77
2022/10/26 02:10:18;;;;;;;;;;;;;;;12.13;48.31;95463.84;4983417;28;19994;-77
2022/10/26 02:13:02;;;;;;;;;;;;;;;12.21;48.70;95470.91;4983015;28;20410;-77
2022/10/26 02:15:31;;;;;;;;;;;;;;;12.37;47.97;95465.31;4982661;28;20043;-77
2022/10/26 02:18:16;;;;;;;;;;;;;;;11.97;48.73;95468.41;4982471;28;20433;-77
2022/10/26 02:20:43;;;;;;;;;;;;;;;12.35;48.28;95462.00;4983015;28;20397;-76
2022/10/26 02:23:08;;;;;;;;;;;;;;;12.27;48.25;95452.28;4965638;28;19994;-77
2022/10/26 02:25:34;;;;;;;;;;;;;;;12.53;47.96;95458.84;4982994;28;19997;-76
2022/10/26 02:28:10;;;;;;;;;;;;;;;12.52;48.03;95453.72;4965321;28;20041;-77
2022/10/26 02:30:35;;;;;;;;;;;;;;;12.52;47.81;95437.69;4964266;28;20549;-77
2022/10/26 02:33:01;;;;;;;;;;;;;;;12.60;47.66;95442.88;4966236;28;19966;-77
2022/10/26 02:35:27;;;;;;;;;;;;;;;12.62;47.95;95440.81;4949203;28;20378;-76
2022/10/26 02:37:52;;;;;;;;;;;;;;;12.57;47.64;95440.59;4964713;28;20042;-77
2022/10/26 02:40:19;;;;;;;;;;;;;;;12.26;48.27;95452.47;4964312;28;20527;-78
2022/10/26 02:42:44;;;;;;;;;;;;;;;12.46;48.27;95446.47;4946893;28;20014;-77
2022/10/26 02:45:10;;;;;;;;;;;;;;;12.44;48.08;95441.31;4965156;28;19970;-77
2022/10/26 02:47:35;;;;;;;;;;;;;;;12.50;47.83;95439.72;4961833;28;20639;-77
2022/10/26 02:50:00;;;;;;;;;;;;;;;12.65;47.63;95440.44;4981875;28;20294;-76
2022/10/26 02:52:44;;;;;;;;;;;;;;;12.54;47.97;95435.63;4965779;28;20458;-77
2022/10/26 02:55:09;;;;;;;;;;;;;;;12.42;47.68;95438.84;4982384;28;19990;-77
2022/10/26 02:57:38;;;;;;;;;;;;;;;12.59;47.55;95437.72;4982014;28;20276;-77
2022/10/26 03:00:04;;;;;;;;;;;;;;;12.65;47.56;95444.97;4946690;28;20022;-77
2022/10/26 03:02:29;;;;;;;;;;;;;;;12.52;47.75;95437.69;4964957;28;20025;-77
2022/10/26 03:04:55;;;;;;;;;;;;;;;12.62;47.34;95437.34;4982517;28;19970;-77
2022/10/26 03:07:21;;;;;;;;;;;;;;;12.62;47.57;95437.34;4964287;28;20096;-77
2022/10/26 03:09:46;;;;;;;;;;;;;;;12.53;47.20;95437.50;4964542;28;20401;-77
2022/10/26 03:12:11;;;;;;;;;;;;;;;12.51;47.40;95439.53;4982303;28;19974;-77
2022/10/26 03:14:36;;;;;;;;;;;;;;;12.53;47.49;95442.00;4981712;28;19998;-77
2022/10/26 03:17:02;;;;;;;;;;;;;;;12.64;47.20;95436.13;4982847;28;20166;-77
2022/10/26 03:19:27;;;;;;;;;;;;;;;12.77;47.29;95438.06;4945796;28;20072;-77
2022/10/26 03:21:52;;;;;;;;;;;;;;;12.80;47.17;95434.16;4981978;28;19997;-77
2022/10/26 03:24:17;;;;;;;;;;;;;;;12.74;47.09;95438.44;4980435;28;20068;-77
2022/10/26 03:26:43;;;;;;;;;;;;;;;12.53;47.38;95442.84;4982261;28;19990;-77
2022/10/26 03:29:08;;;;;;;;;;;;;;;12.65;47.39;95445.78;4961529;28;19985;-77
2022/10/26 03:31:33;;;;;;;;;;;;;;;12.86;46.89;95438.72;4964999;28;20542;-77
2022/10/26 03:33:59;;;;;;;;;;;;;;;12.76;46.92;95438.25;4964293;28;20002;-78
2022/10/26 03:36:24;;;;;;;;;;;;;;;12.74;47.06;95438.44;4964634;28;19974;-77
2022/10/26 03:38:49;;;;;;;;;;;;;;;12.58;47.53;95444.09;4981425;28;19987;-77
2022/10/26 03:41:14;;;;;;;;;;;;;;;12.69;47.04;95435.53;4981564;28;20422;-76
2022/10/26 03:43:39;;;;;;;;;;;;;;;12.83;47.01;95441.78;4964869;28;20100;-77
2022/10/26 03:46:05;;;;;;;;;;;;;;;12.75;46.77;95449.97;4981057;28;19986;-77
2022/10/26 03:48:30;;;;;;;;;;;;;;;12.78;47.00;95442.38;4982089;28;19994;-77
2022/10/26 03:50:58;;;;;;;;;;;;;;;12.77;47.10;95440.72;4980993;28;20378;-77
2022/10/26 03:53:24;;;;;;;;;;;;;;;12.66;47.37;95447.44;4963581;28;20070;-77
2022/10/26 03:55:49;;;;;;;;;;;;;;;12.70;47.30;95445.19;4982367;28;20068;-77
2022/10/26 03:58:14;;;;;;;;;;;;;;;12.75;47.03;95450.78;4981259;28;20021;-78
2022/10/26 04:00:39;;;;;;;;;;;;;;;12.77;47.17;95451.41;4963543;28;20283;-78
2022/10/26 04:03:05;;;;;;;;;;;;;;;12.67;46.93;95443.75;4981225;28;20295;-77
2022/10/26 04:05:30;;;;;;;;;;;;;;;12.82;47.21;95444.66;4981621;28;20045;-77
2022/10/26 04:07:56;;;;;;;;;;;;;;;12.59;47.60;95449.25;4981410;28;20029;-77
2022/10/26 04:10:21;;;;;;;;;;;;;;;12.79;47.24;95441.34;4964274;28;20459;-77
2022/10/26 04:12:46;;;;;;;;;;;;;;;12.80;47.17;95440.34;4964150;28;19981;-77
2022/10/26 04:15:12;;;;;;;;;;;;;;;12.83;47.17;95444.47;4963377;28;20232;-77
2022/10/26 04:17:37;;;;;;;;;;;;;;;12.77;47.26;95438.06;4963898;28;20493;-77
2022/10/26 04:20:02;;;;;;;;;;;;;;;12.71;47.54;95433.47;4963872;28;19977;-77
2022/10/26 04:22:27;;;;;;;;;;;;;;;12.72;47.59;95428.97;4963562;28;19996;-78
2022/10/26 04:24:53;;;;;;;;;;;;;;;12.71;47.52;95432.69;4981653;28;20086;-77
2022/10/26 04:27:18;;;;;;;;;;;;;;;12.71;47.71;95425.47;4962781;28;20002;-77
2022/10/26 04:29:43;;;;;;;;;;;;;;;12.75;47.45;95433.94;4980681;28;19990;-77
2022/10/26 04:32:08;;;;;;;;;;;;;;;12.74;47.31;95435.78;4981107;28;19989;-78
2022/10/26 04:34:34;;;;;;;;;;;;;;;12.69;47.63;95438.22;4981070;28;19986;-77
2022/10/26 04:36:59;;;;;;;;;;;;;;;12.68;47.34;95433.88;4956092;28;20040;-77
2022/10/26 04:39:24;;;;;;;;;;;;;;;12.68;47.68;95436.53;4981136;28;19986;-77
2022/10/26 04:41:49;;;;;;;;;;;;;;;12.66;47.37;95443.94;4980073;28;19985;-77
2022/10/26 04:44:15;;;;;;;;;;;;;;;12.68;47.66;95441.88;4981373;28;20323;-77
2022/10/26 04:46:40;;;;;;;;;;;;;;;12.71;47.27;95440.69;4980612;28;19990;-76
2022/10/26 04:49:05;;;;;;;;;;;;;;;12.72;47.43;95439.66;4980450;28;20017;-76
2022/10/26 04:51:31;;;;;;;;;;;;;;;12.79;47.21;95432.53;4963458;28;20085;-78
2022/10/26 04:53:57;;;;;;;;;;;;;;;12.79;47.50;95427.19;4980661;28;20060;-77
2022/10/26 04:56:22;;;;;;;;;;;;;;;12.76;47.62;95432.91;4963980;28;20439;-76
2022/10/26 04:58:47;;;;;;;;;;;;;;;12.72;47.62;95434.31;4978893;28;19993;-77
2022/10/26 05:01:12;;;;;;;;;;;;;;;12.80;47.24;95434.16;4980382;28;20489;-78
2022/10/26 05:03:38;;;;;;;;;;;;;;;12.74;47.62;95434.94;4968776;28;19993;-76
2022/10/26 05:06:03;;;;;;;;;;;;;;;12.83;47.29;95431.09;4987088;28;19986;-78
2022/10/26 05:08:28;;;;;;;;;;;;;;;12.74;47.58;95419.75;4963153;28;20030;-76
2022/10/26 05:10:54;;;;;;;;;;;;;;;12.76;47.67;95424.91;4987054;28;20224;-76
2022/10/26 05:13:19;;;;;;;;;;;;;;;12.67;47.80;95417.03;4947985;28;20430;-76
2022/10/26 05:15:44;;;;;;;;;;;;;;;12.66;47.53;95415.41;4969883;28;20009;-77
2022/10/26 05:18:10;;;;;;;;;;;;;;;12.56;48.11;95428.28;4986989;28;20000;-78
2022/10/26 05:20:35;;;;;;;;;;;;;;;12.60;48.05;95418.84;4963089;28;20239;-77
2022/10/26 05:23:01;;;;;;;;;;;;;;;12.74;47.68;95421.56;4946673;28;20377;-76
2022/10/26 05:25:26;;;;;;;;;;;;;;;12.70;47.16;95417.66;4971513;28;20068;-77
2022/10/26 05:27:56;;;;;;;;;;;;;;;12.83;47.09;95417.75;4969528;28;20441;-77
2022/10/26 05:30:21;;;;;;;;;;;;;;;12.94;46.88;95411.00;4985924;28;20417;-77
2022/10/26 05:32:52;;;;;;;;;;;;;;;12.85;47.00;95413.00;4987208;28;19986;-76
2022/10/26 05:35:17;;;;;;;;;;;;;;;12.60;47.17;95405.50;4987422;28;20366;-76
2022/10/26 05:37:42;;;;;;;;;;;;;;;12.81;47.17;95414.44;4986225;28;19986;-77
2022/10/26 05:40:08;;;;;;;;;;;;;;;12.90;46.64;95426.63;4987262;28;20451;-77
2022/10/26 05:42:33;;;;;;;;;;;;;;;12.90;46.66;95426.63;4986400;28;19994;-77
2022/10/26 05:44:58;;;;;;;;;;;;;;;12.95;46.44;95430.56;4986975;28;20510;-76
2022/10/26 05:47:24;;;;;;;;;;;;;;;12.73;47.06;95433.28;4986095;28;20067;-76
2022/10/26 05:49:49;;;;;;;;;;;;;;;12.79;46.72;95433.31;4986292;28;20002;-73
2022/10/26 05:52:14;;;;;;;;;;;;;;;12.76;47.00;95430.22;4985049;28;19975;-71
2022/10/26 05:54:39;;;;;;;;;;;;;;;13.05;46.35;95418.50;4984484;28;20506;-72
2022/10/26 05:57:05;;;;;;;;;;;;;;;13.13;46.30;95414.81;4985732;28;20076;-73
2022/10/26 05:59:31;;;;;;;;;;;;;;;13.07;46.29;95410.28;4985293;28;20012;-73
2022/10/26 06:02:05;;;;;;;;;;;;;;;13.13;46.13;95409.47;4979875;28;20365;-72
2022/10/26 06:04:34;;;;;;;;;;;;;;;13.04;46.37;95413.34;4985753;28;19977;-72
2022/10/26 06:07:00;;;;;;;;;;;;;;;12.98;46.64;95417.59;4983300;28;20057;-72
2022/10/26 06:09:25;;;;;;;;;;;;;;;13.13;46.09;95420.16;4965580;28;19974;-72
2022/10/26 06:11:50;;;;;;;;;;;;;;;12.95;46.58;95422.53;4985217;28;20431;-72
2022/10/26 06:14:16;;;;;;;;;;;;;;;13.17;46.04;95432.13;4977629;28;20001;-72
2022/10/26 06:17:02;;;;;;;;;;;;;;;12.52;47.20;95432.34;4979924;28;19987;-72
2022/10/26 06:19:31;;;;;;;;;;;;;;;12.92;46.38;95432.59;4977722;28;20013;-72
2022/10/26 06:22:12;;;;;;;;;;;;;;;13.06;46.24;95427.34;4964405;28;19990;-72
2022/10/26 06:24:47;;;;;;;;;;;;;;;13.12;45.88;95425.72;4964516;28;19974;-72
2022/10/26 06:27:31;;;;;;;;;;;;;;;13.07;46.35;95434.34;4963197;28;20059;-73
2022/10/26 06:30:01;;;;;;;;;;;;;;;13.22;45.97;95433.38;4981820;28;20493;-72
2022/10/26 06:32:26;;;;;;;;;;;;;;;13.14;46.01;95443.22;4980278;28;20037;-72
2022/10/26 06:34:52;;;;;;;;;;;;;;;13.13;46.34;95438.06;4980708;28;19994;-72
2022/10/26 06:37:17;;;;;;;;;;;;;;;13.08;46.05;95440.50;4962801;28;19982;-71
2022/10/26 06:39:46;;;;;;;;;;;;;;;13.17;46.11;95442.00;4980620;28;20409;-72
2022/10/26 06:42:11;;;;;;;;;;;;;;;13.28;45.76;95438.75;4980083;28;21398;-72
2022/10/26 06:44:36;;;;;;;;;;;;;;;13.21;45.83;95442.41;4981770;28;19982;-73
2022/10/26 06:47:05;;;;;;;;;;;;;;;13.11;45.95;95435.59;4979026;28;20314;-73
2022/10/26 06:49:31;;;;;;;;;;;;;;;13.26;45.65;95435.44;4961181;28;20022;-73
2022/10/26 06:51:57;;;;;;;;;;;;;;;13.11;46.03;95442.78;4965321;28;19970;-73
2022/10/26 06:54:28;;;;;;;;;;;;;;;13.16;45.78;95448.38;4956722;28;20016;-73
2022/10/26 06:56:53;;;;;;;;;;;;;;;13.21;45.61;95453.94;4959542;28;19974;-72
2022/10/26 06:59:39;;;;;;;;;;;;;;;13.08;45.92;95467.25;4977174;28;20466;-73
2022/10/26 07:02:04;;;;;;;;;;;;;;;13.25;45.23;95470.38;4976218;28;19990;-72
2022/10/26 07:04:29;;;;;;;;;;;;;;;13.03;45.77;95473.16;4981361;28;20366;-73
2022/10/26 07:06:56;;;;;;;;;;;;;;;12.91;46.33;95467.50;4977214;28;20044;-73
2022/10/26 07:09:21;;;;;;;;;;;;;;;13.10;46.15;95468.69;4976707;28;20069;-72
2022/10/26 07:11:46;;;;;;;;;;;;;;;13.17;45.87;95480.25;4979100;28;20020;-73
2022/10/26 07:14:11;;;;;;;;;;;;;;;12.92;46.33;95486.03;4980615;28;19994;-72
2022/10/26 07:16:36;;;;;;;;;;;;;;;13.26;45.77;95498.78;4980940;28;20397;-73
2022/10/26 07:19:02;;;;;;;;;;;;;;;12.83;46.68;95508.56;4979735;28;20036;-73
2022/10/26 07:21:27;;;;;;;;;;;;;;;13.06;46.19;95520.88;4980280;28;19997;-72
2022/10/26 07:23:55;;;;;;;;;;;;;;;12.74;47.12;95512.41;4980582;28;20462;-72
2022/10/26 07:26:21;;;;;;;;;;;;;;;12.99;46.33;95510.13;4980526;28;20359;-72
2022/10/26 07:28:47;;;;;;;;;;;;;;;13.23;46.21;95515.22;4980914;28;20065;-72
2022/10/26 07:31:12;;;;;;;;;;;;;;;12.96;46.58;95520.38;4981240;28;20471;-73
2022/10/26 07:33:37;;;;;;;;;;;;;;;13.12;46.50;95521.94;4978994;28;20080;-72
2022/10/26 07:36:03;;;;;;;;;;;;;;;13.15;46.37;95524.19;4980914;28;20279;-72
2022/10/26 07:38:28;;;;;;;;;;;;;;;13.23;45.96;95515.22;4979726;28;20060;-73
2022/10/26 07:40:54;;;;;;;;;;;;;;;13.41;45.86;95522.69;4979800;28;19980;-72
2022/10/26 07:43:20;;;;;;;;;;;;;;;13.65;45.63;95524.06;4980265;28;20000;-73
2022/10/26 07:45:47;;;;;;;;;;;;;;;13.70;45.71;95526.09;4978462;28;20001;-73
2022/10/26 07:48:12;;;;;;;;;;;;;;;13.73;45.41;95532.94;4980812;28;19990;-73
2022/10/26 07:50:38;;;;;;;;;;;;;;;13.90;45.34;95533.44;4978986;28;20057;-73
2022/10/26 07:53:03;;;;;;;;;;;;;;;13.67;45.48;95527.34;4980272;28;20017;-72
2022/10/26 07:55:28;;;;;;;;;;;;;;;13.90;45.03;95528.09;4978126;28;20355;-72
2022/10/26 07:57:54;;;;;;;;;;;;;;;14.11;44.85;95535.09;4977312;28;19994;-72
2022/10/26 08:00:19;;;;;;;;;;;;;;;14.16;44.34;95538.03;4980244;28;19978;-72
2022/10/26 08:02:44;;;;;;;;;;;;;;;14.38;44.43;95540.50;4978932;28;19990;-72
2022/10/26 08:05:09;;;;;;;;;;;;;;;14.51;44.24;95541.56;4977783;28;19970;-73
2022/10/26 08:07:39;;;;;;;;;;;;;;;14.60;43.76;95548.38;4978339;28;20363;-73
2022/10/26 08:10:04;;;;;;;;;;;;;;;14.60;43.49;95551.06;4978688;28;20374;-72
2022/10/26 08:12:29;;;;;;;;;;;;;;;14.04;42.99;95563.72;4979374;28;20033;-73
2022/10/26 08:14:55;;;;;;;;;;;;;;;14.10;43.65;95557.56;4979672;28;20094;-70
2022/10/26 08:17:21;;;;;;;;;;;;;;;14.27;43.52;95566.03;4979312;28;19974;-75
2022/10/26 08:19:47;;;;;;;;;;;;;;;14.44;43.08;95566.50;4979341;28;19978;-75
2022/10/26 08:22:12;;;;;;;;;;;;;;;14.52;42.98;95561.97;4982481;28;20064;-77
2022/10/26 08:24:37;;;;;;;;;;;;;;;14.61;43.21;95562.59;4982269;28;20486;-75
2022/10/26 08:27:03;;;;;;;;;;;;;;;14.74;42.53;95562.63;4980838;28;19990;-76
2022/10/26 08:29:28;;;;;;;;;;;;;;;15.10;41.66;95555.19;4984722;28;19998;-79
2022/10/26 08:31:53;;;;;;;;;;;;;;;15.13;42.02;95560.09;4987738;28;19967;-78
2022/10/26 08:34:18;;;;;;;;;;;;;;;15.06;41.56;95564.69;4984620;28;19994;-77
2022/10/26 08:36:44;;;;;;;;;;;;;;;15.02;41.99;95568.81;4983872;28;19985;-68
2022/10/26 08:39:09;;;;;;;;;;;;;;;14.94;41.75;95559.94;4977281;28;20048;-73
2022/10/26 08:41:36;;;;;;;;;;;;;;;15.08;41.64;95563.44;4979296;28;20000;-72
2022/10/26 08:44:21;;;;;;;;;;;;;;;15.23;41.93;95555.16;4957171;28;20057;-72
2022/10/26 08:46:52;;;;;;;;;;;;;;;15.38;41.20;95562.13;4959298;28;20083;-74
2022/10/26 08:49:19;;;;;;;;;;;;;;;15.61;40.75;95555.50;4980112;28;19974;-72
2022/10/26 08:51:44;;;;;;;;;;;;;;;15.69;40.13;95544.53;4976867;28;19990;-74
2022/10/26 08:54:13;;;;;;;;;;;;;;;15.77;40.57;95534.59;4977921;28;20424;-73
2022/10/26 08:56:45;;;;;;;;;;;;;;;15.58;41.00;95539.81;4956250;28;20021;-74
2022/10/26 08:59:13;;;;;;;;;;;;;;;15.66;41.38;95534.22;4975116;28;20191;-72
2022/10/26 09:01:38;;;;;;;;;;;;;;;15.88;40.43;95534.72;4979171;28;19986;-72
2022/10/26 09:04:05;;;;;;;;;;;;;;;14.63;42.53;95544.44;4980771;28;19970;-72
2022/10/26 09:06:46;;;;;;;;;;;;;;;14.32;43.69;95549.38;4961208;28;19998;-72
2022/10/26 09:09:13;;;;;;;;;;;;;;;14.79;42.42;95543.25;4959694;28;19977;-73
2022/10/26 09:11:39;;;;;;;;;;;;;;;15.22;41.78;95544.63;4960585;28;20024;-73
2022/10/26 09:14:04;;;;;;;;;;;;;;;15.49;41.52;95545.41;4977452;28;20439;-73
2022/10/26 09:16:44;;;;;;;;;;;;;;;15.48;41.38;95553.66;4975971;28;20595;-73
2022/10/26 09:19:33;;;;;;;;;;;;;;;15.28;41.67;95551.00;4978022;28;19998;-73
2022/10/26 09:22:03;;;;;;;;;;;;;;;15.57;41.62;95549.72;4964390;28;19997;-73
2022/10/26 09:24:32;;;;;;;;;;;;;;;14.84;43.58;95568.41;4953681;28;19977;-73
2022/10/26 09:26:57;;;;;;;;;;;;;;;14.61;43.33;95566.09;4959499;28;20475;-73
2022/10/26 09:29:25;;;;;;;;;;;;;;;14.94;43.54;95577.88;4978350;28;19977;-73
2022/10/26 09:31:50;;;;;;;;;;;;;;;15.54;42.29;95574.25;4956603;28;20100;-73
2022/10/26 09:34:17;;;;;;;;;;;;;;;15.07;42.94;95577.03;4979422;28;20091;-73
2022/10/26 09:36:43;;;;;;;;;;;;;;;14.32;44.71;95581.50;4959565;28;19973;-73
2022/10/26 09:39:13;;;;;;;;;;;;;;;15.13;43.25;95580.75;4961367;28;19997;-73
2022/10/26 09:41:39;;;;;;;;;;;;;;;15.59;42.16;95576.34;4976482;28;20076;-73
2022/10/26 09:44:05;;;;;;;;;;;;;;;15.24;43.06;95593.53;4961504;28;20006;-73
2022/10/26 09:46:31;;;;;;;;;;;;;;;15.64;42.69;95581.94;4979123;28;20413;-72
2022/10/26 09:49:05;;;;;;;;;;;;;;;15.70;42.12;95591.78;4957943;28;19993;-72
2022/10/26 09:51:32;;;;;;;;;;;;;;;14.95;44.21;95607.16;4982200;28;20298;-72
2022/10/26 09:53:59;;;;;;;;;;;;;;;15.01;43.65;95593.94;4962420;28;20040;-73
2022/10/26 09:56:25;;;;;;;;;;;;;;;15.30;43.63;95606.09;4980679;28;19971;-72
2022/10/26 09:59:01;;;;;;;;;;;;;;;15.34;43.46;95615.38;4961390;28;19990;-73
2022/10/26 10:01:26;;;;;;;;;;;;;;;15.44;43.15;95604.19;4960700;28;20509;-72
2022/10/26 10:04:11;;;;;;;;;;;;;;;15.57;43.29;95613.31;4982178;28;19970;-73
2022/10/26 10:06:37;;;;;;;;;;;;;;;15.34;43.75;95610.00;4971042;28;20000;-73
2022/10/26 10:09:12;;;;;;;;;;;;;;;14.10;47.08;95616.44;4981617;28;20359;-71
2022/10/26 10:11:44;;;;;;;;;;;;;;;13.60;47.04;95622.78;4982623;28;20020;-78
2022/10/26 10:14:19;;;;;;;;;;;;;;;14.31;46.79;95634.22;4944622;28;19985;-78
2022/10/26 10:16:53;;;;;;;;;;;;;;;14.92;45.09;95626.31;4964631;28;19974;-76
2022/10/26 10:19:23;;;;;;;;;;;;;;;13.72;47.84;95627.56;4983262;28;19993;-77
2022/10/26 10:21:49;;;;;;;;;;;;;;;14.46;46.57;95636.72;4965359;28;19989;-78
2022/10/26 10:24:21;;;;;;;;;;;;;;;14.83;45.42;95639.09;4983404;28;20125;-77
2022/10/26 10:26:55;;;;;;;;;;;;;;;12.21;52.01;95652.41;4965693;28;20048;-77
2022/10/26 10:29:23;;;;;;;;;;;;;;;13.35;49.53;95649.97;4983210;28;19974;-78
2022/10/26 10:31:53;;;;;;;;;;;;;;;14.91;45.92;95653.31;4966595;28;20062;-76
2022/10/26 10:37:26;;;;;;;;;;;;;;;14.15;47.31;95656.00;4982696;28;19977;-78
2022/10/26 10:39:58;;;;;;;;;;;;;;;13.53;49.30;95675.41;4965564;28;20013;-78
2022/10/26 10:42:38;;;;;;;;;;;;;;;14.39;46.97;95670.72;4964629;28;20438;-78
2022/10/26 10:45:03;;;;;;;;;;;;;;;14.58;46.57;95681.69;4982170;28;20486;-77
2022/10/26 10:47:29;;;;;;;;;;;;;;;14.37;47.27;95680.81;4965097;28;20006;-77
2022/10/26 10:49:59;;;;;;;;;;;;;;;14.00;47.80;95674.91;4982932;28;20001;-77
2022/10/26 10:52:25;;;;;;;;;;;;;;;13.62;49.22;95679.59;4959096;28;20558;-76
2022/10/26 10:54:52;;;;;;;;;;;;;;;13.42;50.43;95690.97;4959257;28;20479;-78
2022/10/26 10:57:21;;;;;;;;;;;;;;;14.08;48.35;95685.44;4965416;28;20021;-76
2022/10/26 11:00:02;;;;;;;;;;;;;;;13.74;48.84;95685.22;4965388;28;19990;-77
2022/10/26 11:02:40;;;;;;;;;;;;;;;14.37;47.85;95682.66;4981614;28;20041;-78
2022/10/26 11:05:17;;;;;;;;;;;;;;;13.95;49.45;95687.00;4965762;28;20403;-73
2022/10/26 11:07:48;;;;;;;;;;;;;;;13.56;50.07;95693.72;4986513;28;20406;-72
2022/10/26 11:10:14;;;;;;;;;;;;;;;14.70;47.52;95693.47;4985332;28;19988;-74
2022/10/26 11:12:43;;;;;;;;;;;;;;;14.14;48.42;95689.97;4966760;28;19970;-74
2022/10/26 11:15:13;;;;;;;;;;;;;;;15.07;46.16;95697.69;4960584;28;20042;-74
2022/10/26 11:17:53;;;;;;;;;;;;;;;15.21;45.39;95707.41;4966860;28;19996;-74
2022/10/26 11:20:20;;;;;;;;;;;;;;;15.02;46.60;95706.34;4968098;28;20112;-74
2022/10/26 11:22:51;;;;;;;;;;;;;;;14.21;49.40;95711.41;4968503;28;19997;-73
2022/10/26 11:25:19;;;;;;;;;;;;;;;15.60;45.89;95714.81;4984710;28;20362;-74
2022/10/26 11:27:51;;;;;;;;;;;;;;;15.66;45.22;95714.00;4985155;28;20519;-75
2022/10/26 11:30:17;;;;;;;;;;;;;;;15.86;45.01;95714.00;4967135;28;20108;-74
2022/10/26 11:32:48;;;;;;;;;;;;;;;16.15;44.95;95711.03;4964337;28;20151;-73
2022/10/26 11:35:14;;;;;;;;;;;;;;;16.57;43.44;95702.63;4985148;28;20485;-73
2022/10/26 11:37:58;;;;;;;;;;;;;;;16.87;42.42;95706.59;4983111;28;20025;-73
2022/10/26 11:40:33;;;;;;;;;;;;;;;16.97;41.52;95706.94;4983472;28;20028;-73
2022/10/26 11:43:07;;;;;;;;;;;;;;;16.59;42.97;95713.16;4967109;28;19985;-73
2022/10/26 11:45:43;;;;;;;;;;;;;;;17.54;41.07;95711.50;4983480;28;20435;-73
2022/10/26 11:48:35;;;;;;;;;;;;;;;17.99;39.90;95716.91;4962982;28;20012;-73
2022/10/26 11:51:00;;;;;;;;;;;;;;;17.91;39.77;95720.72;4979035;28;20010;-73
2022/10/26 11:53:35;;;;;;;;;;;;;;;17.09;41.95;95714.28;4960335;28;19970;-73
2022/10/26 11:56:00;;;;;;;;;;;;;;;17.01;40.96;95723.47;4973437;28;19973;-74
2022/10/26 11:58:25;;;;;;;;;;;;;;;17.26;41.49;95726.22;4984010;28;19989;-73
2022/10/26 12:00:52;;;;;;;;;;;;;;;17.33;41.16;95719.97;4984911;28;19966;-74
2022/10/26 12:03:20;;;;;;;;;;;;;;;18.21;39.27;95719.16;4966624;28;20514;-73
2022/10/26 12:05:49;;;;;;;;;;;;;;;18.38;38.55;95719.38;4966455;28;20510;-75
2022/10/26 12:08:17;;;;;;;;;;;;;;;18.72;37.91;95722.50;4984386;28;19989;-73
2022/10/26 12:10:42;;;;;;;;;;;;;;;19.40;37.28;95729.66;4965955;28;20005;-74
2022/10/26 12:13:07;;;;;;;;;;;;;;;20.11;35.87;95728.91;4966108;28;19980;-74
2022/10/26 12:15:39;;;;;;;;;;;;;;;21.09;33.93;95716.53;4982820;28;20035;-73
2022/10/26 12:18:07;;;;;;;;;;;;;;;22.23;32.21;95722.91;4984480;28;19980;-73
2022/10/26 12:20:38;;;;;;;;;;;;;;;20.65;34.21;95729.75;4982599;28;20419;-73
2022/10/26 12:23:04;;;;;;;;;;;;;;;21.05;33.76;95722.66;4981630;28;20471;-73
2022/10/26 12:25:29;;;;;;;;;;;;;;;21.19;33.16;95728.56;4964222;28;20035;-73
2022/10/26 12:27:54;;;;;;;;;;;;;;;19.59;36.09;95733.91;4983683;28;19992;-73
2022/10/26 12:30:20;;;;;;;;;;;;;;;21.04;33.08;95740.75;4959716;28;19999;-74
2022/10/26 12:32:48;;;;;;;;;;;;;;;20.84;33.70;95730.41;4982511;28;20082;-73
2022/10/26 12:35:16;;;;;;;;;;;;;;;21.86;32.24;95740.50;4981975;28;20044;-74
2022/10/26 12:37:41;;;;;;;;;;;;;;;22.86;31.03;95732.63;4981187;28;19996;-73
2022/10/26 12:40:25;;;;;;;;;;;;;;;22.64;29.95;95733.47;4966725;28;19969;-73
2022/10/26 12:42:50;;;;;;;;;;;;;;;24.14;28.42;95726.94;4984038;28;20209;-73
2022/10/26 12:45:17;;;;;;;;;;;;;;;24.49;27.72;95732.84;4983710;28;19963;-74
2022/10/26 12:47:43;;;;;;;;;;;;;;;23.32;28.64;95733.38;4981848;28;19978;-74
2022/10/26 12:50:08;;;;;;;;;;;;;;;22.89;30.45;95736.72;4981538;28;20115;-73
2022/10/26 12:52:52;;;;;;;;;;;;;;;23.34;29.31;95736.63;4983628;28;20366;-73
2022/10/26 12:55:36;;;;;;;;;;;;;;;25.36;26.50;95731.47;4981977;28;19979;-73